sensor_id;sensor_type;location;lat;lon;timestamp;P1;durP1;ratioP1;P2;durP2;ratioP2
72464;SDS011;60471;52.150;4.508;2023-02-18T00:01:22;45.88;;;11.43;;
72464;SDS011;60471;52.150;4.508;2023-02-18T00:03:49;48.67;;;13.55;;
72464;SDS011;60471;52.150;4.508;2023-02-18T00:06:18;47.10;;;12.18;;
72464;SDS011;60471;52.150;4.508;2023-02-18T00:08:50;45.85;;;11.77;;
72464;SDS011;60471;52.150;4.508;2023-02-18T00:11:19;53.97;;;13.55;;
72464;SDS011;60471;52.150;4.508;2023-02-18T00:13:50;43.10;;;12.68;;
72464;SDS011;60471;52.150;4.508;2023-02-18T00:16:19;48.70;;;14.98;;
72464;SDS011;60471;52.150;4.508;2023-02-18T00:18:46;48.80;;;15.15;;
72464;SDS011;60471;52.150;4.508;2023-02-18T00:21:12;54.60;;;16.75;;
72464;SDS011;60471;52.150;4.508;2023-02-18T00:23:39;50.67;;;18.55;;
72464;SDS011;60471;52.150;4.508;2023-02-18T00:26:06;58.42;;;18.95;;
72464;SDS011;60471;52.150;4.508;2023-02-18T00:28:37;56.72;;;19.33;;
72464;SDS011;60471;52.150;4.508;2023-02-18T00:31:05;51.67;;;20.33;;
72464;SDS011;60471;52.150;4.508;2023-02-18T00:33:34;54.97;;;20.77;;
72464;SDS011;60471;52.150;4.508;2023-02-18T00:36:04;51.88;;;22.35;;
72464;SDS011;60471;52.150;4.508;2023-02-18T00:38:35;64.82;;;24.30;;
72464;SDS011;60471;52.150;4.508;2023-02-18T00:41:01;61.13;;;23.95;;
72464;SDS011;60471;52.150;4.508;2023-02-18T00:43:28;62.38;;;23.77;;
72464;SDS011;60471;52.150;4.508;2023-02-18T00:45:55;62.88;;;24.52;;
72464;SDS011;60471;52.150;4.508;2023-02-18T00:48:21;58.97;;;23.10;;
72464;SDS011;60471;52.150;4.508;2023-02-18T00:50:48;68.38;;;26.58;;
72464;SDS011;60471;52.150;4.508;2023-02-18T00:53:14;58.58;;;26.00;;
72464;SDS011;60471;52.150;4.508;2023-02-18T00:55:43;61.15;;;26.52;;
72464;SDS011;60471;52.150;4.508;2023-02-18T01:00:39;59.22;;;26.23;;
72464;SDS011;60471;52.150;4.508;2023-02-18T01:03:07;70.53;;;27.17;;
72464;SDS011;60471;52.150;4.508;2023-02-18T01:05:34;63.35;;;25.88;;
72464;SDS011;60471;52.150;4.508;2023-02-18T01:08:01;75.53;;;29.20;;
72464;SDS011;60471;52.150;4.508;2023-02-18T01:10:28;71.28;;;28.02;;
72464;SDS011;60471;52.150;4.508;2023-02-18T01:12:54;73.30;;;27.52;;
72464;SDS011;60471;52.150;4.508;2023-02-18T01:15:21;69.13;;;28.52;;
72464;SDS011;60471;52.150;4.508;2023-02-18T01:17:48;72.60;;;27.65;;
72464;SDS011;60471;52.150;4.508;2023-02-18T01:20:16;68.55;;;28.70;;
72464;SDS011;60471;52.150;4.508;2023-02-18T01:22:43;73.28;;;28.40;;
72464;SDS011;60471;52.150;4.508;2023-02-18T01:25:10;68.72;;;29.33;;
72464;SDS011;60471;52.150;4.508;2023-02-18T01:27:36;62.15;;;28.60;;
72464;SDS011;60471;52.150;4.508;2023-02-18T01:30:03;66.15;;;29.83;;
72464;SDS011;60471;52.150;4.508;2023-02-18T01:32:32;67.50;;;27.58;;
72464;SDS011;60471;52.150;4.508;2023-02-18T01:35:01;53.20;;;25.20;;
72464;SDS011;60471;52.150;4.508;2023-02-18T01:37:31;62.72;;;27.45;;
72464;SDS011;60471;52.150;4.508;2023-02-18T01:39:57;60.67;;;29.52;;
72464;SDS011;60471;52.150;4.508;2023-02-18T01:42:25;70.70;;;28.73;;
72464;SDS011;60471;52.150;4.508;2023-02-18T01:44:54;61.50;;;25.42;;
72464;SDS011;60471;52.150;4.508;2023-02-18T01:48:03;62.47;;;28.70;;
72464;SDS011;60471;52.150;4.508;2023-02-18T01:50:39;60.17;;;25.67;;
72464;SDS011;60471;52.150;4.508;2023-02-18T01:53:12;60.40;;;28.52;;
72464;SDS011;60471;52.150;4.508;2023-02-18T01:55:43;55.45;;;27.20;;
72464;SDS011;60471;52.150;4.508;2023-02-18T01:58:11;58.92;;;24.77;;
72464;SDS011;60471;52.150;4.508;2023-02-18T02:00:38;61.67;;;26.95;;
72464;SDS011;60471;52.150;4.508;2023-02-18T02:03:05;59.90;;;27.08;;
72464;SDS011;60471;52.150;4.508;2023-02-18T02:05:32;57.45;;;24.95;;
72464;SDS011;60471;52.150;4.508;2023-02-18T02:07:59;58.95;;;25.13;;
72464;SDS011;60471;52.150;4.508;2023-02-18T02:10:54;63.63;;;27.02;;
72464;SDS011;60471;52.150;4.508;2023-02-18T02:16:56;68.18;;;27.45;;
72464;SDS011;60471;52.150;4.508;2023-02-18T02:19:48;60.65;;;27.65;;
72464;SDS011;60471;52.150;4.508;2023-02-18T02:36:57;61.20;;;25.50;;
72464;SDS011;60471;52.150;4.508;2023-02-18T02:40:06;54.85;;;25.35;;
72464;SDS011;60471;52.150;4.508;2023-02-18T02:51:35;44.13;;;21.98;;
72464;SDS011;60471;52.150;4.508;2023-02-18T02:54:16;45.22;;;21.80;;
72464;SDS011;60471;52.150;4.508;2023-02-18T02:56:49;41.30;;;18.73;;
72464;SDS011;60471;52.150;4.508;2023-02-18T02:59:39;43.03;;;21.83;;
72464;SDS011;60471;52.150;4.508;2023-02-18T03:05:36;43.78;;;21.05;;
72464;SDS011;60471;52.150;4.508;2023-02-18T03:16:34;37.08;;;16.80;;
72464;SDS011;60471;52.150;4.508;2023-02-18T03:22:04;38.25;;;14.82;;
72464;SDS011;60471;52.150;4.508;2023-02-18T03:24:39;34.43;;;15.63;;
72464;SDS011;60471;52.150;4.508;2023-02-18T03:27:12;32.60;;;13.45;;
72464;SDS011;60471;52.150;4.508;2023-02-18T03:29:47;32.17;;;16.20;;
72464;SDS011;60471;52.150;4.508;2023-02-18T03:32:21;34.67;;;15.40;;
72464;SDS011;60471;52.150;4.508;2023-02-18T03:34:52;34.50;;;15.38;;
72464;SDS011;60471;52.150;4.508;2023-02-18T03:37:26;37.20;;;15.95;;
72464;SDS011;60471;52.150;4.508;2023-02-18T03:39:56;36.05;;;16.77;;
72464;SDS011;60471;52.150;4.508;2023-02-18T03:42:27;32.95;;;14.48;;
72464;SDS011;60471;52.150;4.508;2023-02-18T03:44:54;40.45;;;16.30;;
72464;SDS011;60471;52.150;4.508;2023-02-18T03:47:20;44.97;;;19.77;;
72464;SDS011;60471;52.150;4.508;2023-02-18T03:49:47;46.95;;;19.67;;
72464;SDS011;60471;52.150;4.508;2023-02-18T03:52:14;49.50;;;21.48;;
72464;SDS011;60471;52.150;4.508;2023-02-18T03:54:40;43.42;;;19.48;;
72464;SDS011;60471;52.150;4.508;2023-02-18T03:57:07;41.28;;;20.25;;
72464;SDS011;60471;52.150;4.508;2023-02-18T03:59:33;41.42;;;19.98;;
72464;SDS011;60471;52.150;4.508;2023-02-18T04:02:00;45.65;;;21.02;;
72464;SDS011;60471;52.150;4.508;2023-02-18T04:04:27;41.97;;;21.45;;
72464;SDS011;60471;52.150;4.508;2023-02-18T04:06:53;37.10;;;18.75;;
72464;SDS011;60471;52.150;4.508;2023-02-18T04:09:20;33.85;;;16.17;;
72464;SDS011;60471;52.150;4.508;2023-02-18T04:11:46;40.20;;;19.55;;
72464;SDS011;60471;52.150;4.508;2023-02-18T04:14:12;41.70;;;18.77;;
72464;SDS011;60471;52.150;4.508;2023-02-18T04:16:40;44.17;;;19.00;;
72464;SDS011;60471;52.150;4.508;2023-02-18T04:19:07;37.10;;;19.75;;
72464;SDS011;60471;52.150;4.508;2023-02-18T04:21:33;42.55;;;18.65;;
72464;SDS011;60471;52.150;4.508;2023-02-18T04:23:59;36.17;;;16.75;;
72464;SDS011;60471;52.150;4.508;2023-02-18T04:26:26;36.22;;;13.85;;
72464;SDS011;60471;52.150;4.508;2023-02-18T04:28:52;38.13;;;16.45;;
72464;SDS011;60471;52.150;4.508;2023-02-18T04:31:18;37.28;;;16.48;;
72464;SDS011;60471;52.150;4.508;2023-02-18T04:33:44;43.30;;;17.13;;
72464;SDS011;60471;52.150;4.508;2023-02-18T04:36:11;33.45;;;15.60;;
72464;SDS011;60471;52.150;4.508;2023-02-18T04:38:37;39.15;;;18.17;;
72464;SDS011;60471;52.150;4.508;2023-02-18T04:41:03;33.15;;;16.35;;
72464;SDS011;60471;52.150;4.508;2023-02-18T04:43:29;36.20;;;16.63;;
72464;SDS011;60471;52.150;4.508;2023-02-18T04:45:56;34.55;;;13.88;;
72464;SDS011;60471;52.150;4.508;2023-02-18T04:48:22;40.00;;;15.93;;
72464;SDS011;60471;52.150;4.508;2023-02-18T04:50:48;34.10;;;15.80;;
72464;SDS011;60471;52.150;4.508;2023-02-18T04:53:14;31.52;;;13.90;;
72464;SDS011;60471;52.150;4.508;2023-02-18T04:55:41;29.05;;;13.70;;
72464;SDS011;60471;52.150;4.508;2023-02-18T04:58:07;28.83;;;13.45;;
72464;SDS011;60471;52.150;4.508;2023-02-18T05:00:35;29.38;;;11.88;;
72464;SDS011;60471;52.150;4.508;2023-02-18T05:03:01;29.98;;;12.25;;
72464;SDS011;60471;52.150;4.508;2023-02-18T05:05:27;26.67;;;12.45;;
72464;SDS011;60471;52.150;4.508;2023-02-18T05:07:53;33.60;;;12.20;;
72464;SDS011;60471;52.150;4.508;2023-02-18T05:10:20;28.15;;;12.13;;
72464;SDS011;60471;52.150;4.508;2023-02-18T05:12:46;27.90;;;11.27;;
72464;SDS011;60471;52.150;4.508;2023-02-18T05:15:12;23.38;;;12.07;;
72464;SDS011;60471;52.150;4.508;2023-02-18T05:17:38;25.38;;;10.65;;
72464;SDS011;60471;52.150;4.508;2023-02-18T05:20:05;26.75;;;11.85;;
72464;SDS011;60471;52.150;4.508;2023-02-18T05:22:32;25.63;;;11.60;;
72464;SDS011;60471;52.150;4.508;2023-02-18T05:25:01;22.85;;;10.57;;
72464;SDS011;60471;52.150;4.508;2023-02-18T05:27:28;30.52;;;12.23;;
72464;SDS011;60471;52.150;4.508;2023-02-18T05:29:54;29.15;;;11.95;;
72464;SDS011;60471;52.150;4.508;2023-02-18T05:32:21;23.00;;;11.18;;
72464;SDS011;60471;52.150;4.508;2023-02-18T05:34:48;20.88;;;10.25;;
72464;SDS011;60471;52.150;4.508;2023-02-18T05:37:14;24.75;;;11.57;;
72464;SDS011;60471;52.150;4.508;2023-02-18T05:39:43;25.10;;;10.70;;
72464;SDS011;60471;52.150;4.508;2023-02-18T05:42:10;25.30;;;9.38;;
72464;SDS011;60471;52.150;4.508;2023-02-18T05:44:36;29.17;;;11.02;;
72464;SDS011;60471;52.150;4.508;2023-02-18T05:47:04;18.98;;;9.50;;
72464;SDS011;60471;52.150;4.508;2023-02-18T05:49:34;23.33;;;11.60;;
72464;SDS011;60471;52.150;4.508;2023-02-18T05:52:02;21.25;;;10.98;;
72464;SDS011;60471;52.150;4.508;2023-02-18T05:54:30;21.88;;;9.82;;
72464;SDS011;60471;52.150;4.508;2023-02-18T05:56:57;23.88;;;11.30;;
72464;SDS011;60471;52.150;4.508;2023-02-18T05:59:23;26.80;;;11.43;;
72464;SDS011;60471;52.150;4.508;2023-02-18T06:01:50;25.15;;;12.30;;
72464;SDS011;60471;52.150;4.508;2023-02-18T06:04:16;26.35;;;9.68;;
72464;SDS011;60471;52.150;4.508;2023-02-18T06:06:42;20.95;;;9.93;;
72464;SDS011;60471;52.150;4.508;2023-02-18T06:09:09;24.08;;;10.13;;
72464;SDS011;60471;52.150;4.508;2023-02-18T06:11:35;21.30;;;8.90;;
72464;SDS011;60471;52.150;4.508;2023-02-18T06:14:02;26.48;;;10.65;;
72464;SDS011;60471;52.150;4.508;2023-02-18T06:16:30;24.80;;;9.13;;
72464;SDS011;60471;52.150;4.508;2023-02-18T06:18:56;19.08;;;7.95;;
72464;SDS011;60471;52.150;4.508;2023-02-18T06:21:23;23.75;;;9.38;;
72464;SDS011;60471;52.150;4.508;2023-02-18T06:23:49;23.40;;;8.85;;
72464;SDS011;60471;52.150;4.508;2023-02-18T06:26:15;20.65;;;6.70;;
72464;SDS011;60471;52.150;4.508;2023-02-18T06:28:41;31.25;;;10.18;;
72464;SDS011;60471;52.150;4.508;2023-02-18T06:31:08;27.48;;;8.60;;
72464;SDS011;60471;52.150;4.508;2023-02-18T06:33:34;31.40;;;8.00;;
72464;SDS011;60471;52.150;4.508;2023-02-18T06:36:03;30.13;;;8.55;;
72464;SDS011;60471;52.150;4.508;2023-02-18T06:38:33;24.42;;;8.38;;
72464;SDS011;60471;52.150;4.508;2023-02-18T06:41:03;20.65;;;6.88;;
72464;SDS011;60471;52.150;4.508;2023-02-18T06:43:31;26.40;;;7.30;;
72464;SDS011;60471;52.150;4.508;2023-02-18T06:45:57;26.33;;;7.65;;
72464;SDS011;60471;52.150;4.508;2023-02-18T06:48:23;28.90;;;7.65;;
72464;SDS011;60471;52.150;4.508;2023-02-18T06:50:50;26.70;;;6.68;;
72464;SDS011;60471;52.150;4.508;2023-02-18T06:53:16;28.05;;;7.65;;
72464;SDS011;60471;52.150;4.508;2023-02-18T06:55:43;35.53;;;7.28;;
72464;SDS011;60471;52.150;4.508;2023-02-18T06:58:10;32.80;;;7.88;;
72464;SDS011;60471;52.150;4.508;2023-02-18T07:00:37;22.75;;;6.72;;
72464;SDS011;60471;52.150;4.508;2023-02-18T07:03:04;42.65;;;17.60;;
72464;SDS011;60471;52.150;4.508;2023-02-18T07:05:30;26.15;;;6.03;;
72464;SDS011;60471;52.150;4.508;2023-02-18T07:07:57;28.40;;;5.38;;
72464;SDS011;60471;52.150;4.508;2023-02-18T07:10:23;27.95;;;5.07;;
72464;SDS011;60471;52.150;4.508;2023-02-18T07:12:50;21.48;;;4.10;;
72464;SDS011;60471;52.150;4.508;2023-02-18T07:15:16;33.20;;;4.70;;
72464;SDS011;60471;52.150;4.508;2023-02-18T07:17:43;27.67;;;8.13;;
72464;SDS011;60471;52.150;4.508;2023-02-18T07:20:09;24.92;;;4.70;;
72464;SDS011;60471;52.150;4.508;2023-02-18T07:22:35;24.15;;;5.07;;
72464;SDS011;60471;52.150;4.508;2023-02-18T07:25:01;26.15;;;3.95;;
72464;SDS011;60471;52.150;4.508;2023-02-18T07:27:29;23.98;;;4.03;;
72464;SDS011;60471;52.150;4.508;2023-02-18T07:29:55;22.52;;;4.00;;
72464;SDS011;60471;52.150;4.508;2023-02-18T07:32:22;22.58;;;3.80;;
72464;SDS011;60471;52.150;4.508;2023-02-18T07:34:50;25.90;;;4.78;;
72464;SDS011;60471;52.150;4.508;2023-02-18T07:37:18;23.60;;;4.28;;
72464;SDS011;60471;52.150;4.508;2023-02-18T07:39:45;26.38;;;4.95;;
72464;SDS011;60471;52.150;4.508;2023-02-18T07:42:11;31.10;;;4.78;;
72464;SDS011;60471;52.150;4.508;2023-02-18T07:44:39;27.55;;;4.22;;
72464;SDS011;60471;52.150;4.508;2023-02-18T07:47:06;29.90;;;4.63;;
72464;SDS011;60471;52.150;4.508;2023-02-18T07:49:37;27.50;;;4.55;;
72464;SDS011;60471;52.150;4.508;2023-02-18T07:52:03;24.85;;;4.50;;
72464;SDS011;60471;52.150;4.508;2023-02-18T07:54:29;30.33;;;5.18;;
72464;SDS011;60471;52.150;4.508;2023-02-18T07:56:55;30.33;;;4.53;;
72464;SDS011;60471;52.150;4.508;2023-02-18T07:59:22;25.98;;;5.32;;
72464;SDS011;60471;52.150;4.508;2023-02-18T08:01:48;22.92;;;4.50;;
72464;SDS011;60471;52.150;4.508;2023-02-18T08:04:14;22.85;;;3.78;;
72464;SDS011;60471;52.150;4.508;2023-02-18T08:06:44;34.67;;;8.93;;
72464;SDS011;60471;52.150;4.508;2023-02-18T08:09:13;29.25;;;4.25;;
72464;SDS011;60471;52.150;4.508;2023-02-18T08:11:41;28.23;;;4.47;;
72464;SDS011;60471;52.150;4.508;2023-02-18T08:14:08;26.75;;;4.55;;
72464;SDS011;60471;52.150;4.508;2023-02-18T08:16:34;25.92;;;3.88;;
72464;SDS011;60471;52.150;4.508;2023-02-18T08:19:01;25.10;;;4.40;;
72464;SDS011;60471;52.150;4.508;2023-02-18T08:21:29;24.30;;;3.53;;
72464;SDS011;60471;52.150;4.508;2023-02-18T08:23:56;19.17;;;3.13;;
72464;SDS011;60471;52.150;4.508;2023-02-18T08:26:24;25.65;;;3.63;;
72464;SDS011;60471;52.150;4.508;2023-02-18T08:28:51;27.88;;;3.95;;
72464;SDS011;60471;52.150;4.508;2023-02-18T08:33:47;26.85;;;3.88;;
72464;SDS011;60471;52.150;4.508;2023-02-18T08:36:14;21.80;;;3.33;;
72464;SDS011;60471;52.150;4.508;2023-02-18T08:38:40;26.63;;;4.10;;
72464;SDS011;60471;52.150;4.508;2023-02-18T08:41:07;30.42;;;4.22;;
72464;SDS011;60471;52.150;4.508;2023-02-18T08:43:34;17.88;;;3.08;;
72464;SDS011;60471;52.150;4.508;2023-02-18T08:46:01;25.90;;;3.88;;
72464;SDS011;60471;52.150;4.508;2023-02-18T08:48:29;32.40;;;4.63;;
72464;SDS011;60471;52.150;4.508;2023-02-18T08:50:55;21.83;;;3.67;;
72464;SDS011;60471;52.150;4.508;2023-02-18T08:53:22;23.10;;;3.75;;
72464;SDS011;60471;52.150;4.508;2023-02-18T08:55:49;29.02;;;4.45;;
72464;SDS011;60471;52.150;4.508;2023-02-18T08:58:15;28.42;;;3.88;;
72464;SDS011;60471;52.150;4.508;2023-02-18T09:00:42;28.23;;;5.25;;
72464;SDS011;60471;52.150;4.508;2023-02-18T09:03:13;19.25;;;3.85;;
72464;SDS011;60471;52.150;4.508;2023-02-18T09:05:40;22.60;;;4.25;;
72464;SDS011;60471;52.150;4.508;2023-02-18T09:08:07;32.78;;;4.90;;
72464;SDS011;60471;52.150;4.508;2023-02-18T09:10:33;33.70;;;8.40;;
72464;SDS011;60471;52.150;4.508;2023-02-18T09:13:00;20.45;;;4.20;;
72464;SDS011;60471;52.150;4.508;2023-02-18T09:15:26;26.45;;;4.45;;
72464;SDS011;60471;52.150;4.508;2023-02-18T09:17:52;30.85;;;5.43;;
72464;SDS011;60471;52.150;4.508;2023-02-18T09:20:18;25.25;;;4.03;;
72464;SDS011;60471;52.150;4.508;2023-02-18T09:22:44;27.02;;;4.78;;
72464;SDS011;60471;52.150;4.508;2023-02-18T09:25:11;27.73;;;4.97;;
72464;SDS011;60471;52.150;4.508;2023-02-18T09:27:37;31.20;;;5.05;;
72464;SDS011;60471;52.150;4.508;2023-02-18T09:30:04;25.98;;;4.85;;
72464;SDS011;60471;52.150;4.508;2023-02-18T09:32:31;25.80;;;4.47;;
72464;SDS011;60471;52.150;4.508;2023-02-18T09:34:57;33.97;;;4.68;;
72464;SDS011;60471;52.150;4.508;2023-02-18T09:37:23;26.00;;;3.90;;
72464;SDS011;60471;52.150;4.508;2023-02-18T09:39:49;26.27;;;5.07;;
72464;SDS011;60471;52.150;4.508;2023-02-18T09:42:16;21.25;;;3.95;;
72464;SDS011;60471;52.150;4.508;2023-02-18T09:44:50;31.70;;;5.05;;
72464;SDS011;60471;52.150;4.508;2023-02-18T09:47:23;27.52;;;5.15;;
72464;SDS011;60471;52.150;4.508;2023-02-18T09:52:41;32.40;;;3.72;;
72464;SDS011;60471;52.150;4.508;2023-02-18T09:57:43;34.67;;;4.93;;
72464;SDS011;60471;52.150;4.508;2023-02-18T10:00:16;21.17;;;4.07;;
72464;SDS011;60471;52.150;4.508;2023-02-18T10:02:53;42.85;;;5.55;;
72464;SDS011;60471;52.150;4.508;2023-02-18T10:05:22;42.88;;;5.72;;
72464;SDS011;60471;52.150;4.508;2023-02-18T10:07:53;28.17;;;4.38;;
72464;SDS011;60471;52.150;4.508;2023-02-18T10:13:19;29.17;;;5.10;;
72464;SDS011;60471;52.150;4.508;2023-02-18T10:15:48;29.73;;;4.72;;
72464;SDS011;60471;52.150;4.508;2023-02-18T10:18:20;33.45;;;4.63;;
72464;SDS011;60471;52.150;4.508;2023-02-18T10:20:56;35.60;;;4.85;;
72464;SDS011;60471;52.150;4.508;2023-02-18T10:23:38;40.67;;;5.75;;
72464;SDS011;60471;52.150;4.508;2023-02-18T10:26:19;24.95;;;5.03;;
72464;SDS011;60471;52.150;4.508;2023-02-18T10:28:46;34.20;;;5.43;;
72464;SDS011;60471;52.150;4.508;2023-02-18T10:31:17;32.55;;;4.78;;
72464;SDS011;60471;52.150;4.508;2023-02-18T10:34:04;30.83;;;5.28;;
72464;SDS011;60471;52.150;4.508;2023-02-18T10:37:06;28.48;;;3.90;;
72464;SDS011;60471;52.150;4.508;2023-02-18T10:40:03;28.02;;;4.75;;
72464;SDS011;60471;52.150;4.508;2023-02-18T10:43:10;35.28;;;5.05;;
72464;SDS011;60471;52.150;4.508;2023-02-18T10:46:28;27.43;;;4.43;;
72464;SDS011;60471;52.150;4.508;2023-02-18T10:51:49;32.17;;;4.95;;
72464;SDS011;60471;52.150;4.508;2023-02-18T10:54:23;33.90;;;5.13;;
72464;SDS011;60471;52.150;4.508;2023-02-18T10:56:52;24.00;;;4.30;;
72464;SDS011;60471;52.150;4.508;2023-02-18T10:59:26;27.70;;;8.05;;
72464;SDS011;60471;52.150;4.508;2023-02-18T11:02:02;40.90;;;13.18;;
72464;SDS011;60471;52.150;4.508;2023-02-18T11:04:41;34.92;;;4.95;;
72464;SDS011;60471;52.150;4.508;2023-02-18T11:07:20;28.27;;;4.15;;
72464;SDS011;60471;52.150;4.508;2023-02-18T11:10:28;26.45;;;4.78;;
72464;SDS011;60471;52.150;4.508;2023-02-18T11:12:55;38.53;;;5.38;;
72464;SDS011;60471;52.150;4.508;2023-02-18T11:15:26;26.70;;;4.63;;
72464;SDS011;60471;52.150;4.508;2023-02-18T11:17:55;34.35;;;4.53;;
72464;SDS011;60471;52.150;4.508;2023-02-18T11:21:01;21.90;;;3.58;;
72464;SDS011;60471;52.150;4.508;2023-02-18T11:23:47;16.27;;;2.88;;
72464;SDS011;60471;52.150;4.508;2023-02-18T11:26:17;36.20;;;6.60;;
72464;SDS011;60471;52.150;4.508;2023-02-18T11:29:02;25.08;;;3.78;;
72464;SDS011;60471;52.150;4.508;2023-02-18T11:31:44;22.65;;;3.40;;
72464;SDS011;60471;52.150;4.508;2023-02-18T11:34:19;18.07;;;3.27;;
72464;SDS011;60471;52.150;4.508;2023-02-18T11:36:51;28.25;;;3.85;;
72464;SDS011;60471;52.150;4.508;2023-02-18T11:39:22;22.92;;;3.38;;
72464;SDS011;60471;52.150;4.508;2023-02-18T11:44:33;20.52;;;2.80;;
72464;SDS011;60471;52.150;4.508;2023-02-18T11:49:31;21.13;;;3.40;;
72464;SDS011;60471;52.150;4.508;2023-02-18T11:52:44;14.70;;;2.75;;
72464;SDS011;60471;52.150;4.508;2023-02-18T11:55:13;16.67;;;3.13;;
72464;SDS011;60471;52.150;4.508;2023-02-18T11:57:41;12.05;;;2.78;;
72464;SDS011;60471;52.150;4.508;2023-02-18T12:00:18;26.75;;;3.97;;
72464;SDS011;60471;52.150;4.508;2023-02-18T12:02:49;17.55;;;3.17;;
72464;SDS011;60471;52.150;4.508;2023-02-18T12:05:26;22.58;;;6.68;;
72464;SDS011;60471;52.150;4.508;2023-02-18T12:11:00;22.48;;;3.10;;
72464;SDS011;60471;52.150;4.508;2023-02-18T12:22:18;15.30;;;2.60;;
72464;SDS011;60471;52.150;4.508;2023-02-18T12:28:35;20.73;;;3.00;;
72464;SDS011;60471;52.150;4.508;2023-02-18T12:39:46;15.35;;;3.10;;
72464;SDS011;60471;52.150;4.508;2023-02-18T12:56:53;17.75;;;2.88;;
72464;SDS011;60471;52.150;4.508;2023-02-18T13:05:39;14.20;;;2.85;;
72464;SDS011;60471;52.150;4.508;2023-02-18T13:08:30;16.80;;;2.55;;
72464;SDS011;60471;52.150;4.508;2023-02-18T13:11:24;20.02;;;2.90;;
72464;SDS011;60471;52.150;4.508;2023-02-18T13:14:30;16.48;;;2.80;;
72464;SDS011;60471;52.150;4.508;2023-02-18T13:17:11;15.93;;;2.78;;
72464;SDS011;60471;52.150;4.508;2023-02-18T13:22:18;14.27;;;2.58;;
72464;SDS011;60471;52.150;4.508;2023-02-18T13:24:49;10.18;;;2.00;;
72464;SDS011;60471;52.150;4.508;2023-02-18T13:27:24;15.85;;;3.28;;
72464;SDS011;60471;52.150;4.508;2023-02-18T13:36:08;16.15;;;3.17;;
72464;SDS011;60471;52.150;4.508;2023-02-18T13:41:39;12.85;;;2.35;;
72464;SDS011;60471;52.150;4.508;2023-02-18T13:45:00;14.75;;;3.10;;
72464;SDS011;60471;52.150;4.508;2023-02-18T13:47:05;23.98;;;2.88;;
72464;SDS011;60471;52.150;4.508;2023-02-18T13:49:34;18.20;;;2.83;;
72464;SDS011;60471;52.150;4.508;2023-02-18T13:52:05;24.60;;;2.97;;
72464;SDS011;60471;52.150;4.508;2023-02-18T13:54:45;18.25;;;2.50;;
72464;SDS011;60471;52.150;4.508;2023-02-18T13:57:13;14.85;;;3.58;;
72464;SDS011;60471;52.150;4.508;2023-02-18T13:59:46;18.02;;;3.40;;
72464;SDS011;60471;52.150;4.508;2023-02-18T14:10:03;15.57;;;3.28;;
72464;SDS011;60471;52.150;4.508;2023-02-18T14:23:37;18.10;;;3.88;;
72464;SDS011;60471;52.150;4.508;2023-02-18T14:26:15;13.13;;;2.60;;
72464;SDS011;60471;52.150;4.508;2023-02-18T14:28:38;21.17;;;3.28;;
72464;SDS011;60471;52.150;4.508;2023-02-18T14:31:16;19.70;;;3.85;;
72464;SDS011;60471;52.150;4.508;2023-02-18T14:36:39;21.23;;;3.60;;
72464;SDS011;60471;52.150;4.508;2023-02-18T14:45:27;22.17;;;3.92;;
72464;SDS011;60471;52.150;4.508;2023-02-18T14:51:14;16.33;;;2.95;;
72464;SDS011;60471;52.150;4.508;2023-02-18T14:53:46;12.77;;;2.35;;
72464;SDS011;60471;52.150;4.508;2023-02-18T14:56:15;29.35;;;8.18;;
72464;SDS011;60471;52.150;4.508;2023-02-18T14:58:46;17.80;;;2.83;;
72464;SDS011;60471;52.150;4.508;2023-02-18T15:01:29;18.90;;;3.20;;
72464;SDS011;60471;52.150;4.508;2023-02-18T15:03:59;22.80;;;5.50;;
72464;SDS011;60471;52.150;4.508;2023-02-18T15:06:31;20.27;;;4.25;;
72464;SDS011;60471;52.150;4.508;2023-02-18T15:09:02;16.95;;;3.10;;
72464;SDS011;60471;52.150;4.508;2023-02-18T15:11:55;28.20;;;3.40;;
72464;SDS011;60471;52.150;4.508;2023-02-18T15:14:30;19.20;;;3.40;;
72464;SDS011;60471;52.150;4.508;2023-02-18T15:17:01;12.77;;;2.90;;
72464;SDS011;60471;52.150;4.508;2023-02-18T15:19:32;20.80;;;3.10;;
72464;SDS011;60471;52.150;4.508;2023-02-18T15:22:13;23.55;;;3.78;;
72464;SDS011;60471;52.150;4.508;2023-02-18T15:24:44;20.13;;;3.53;;
72464;SDS011;60471;52.150;4.508;2023-02-18T15:27:21;16.25;;;3.10;;
72464;SDS011;60471;52.150;4.508;2023-02-18T15:29:50;21.88;;;4.15;;
72464;SDS011;60471;52.150;4.508;2023-02-18T15:32:26;25.33;;;3.85;;
72464;SDS011;60471;52.150;4.508;2023-02-18T15:35:00;18.20;;;3.25;;
72464;SDS011;60471;52.150;4.508;2023-02-18T15:37:42;20.95;;;3.63;;
72464;SDS011;60471;52.150;4.508;2023-02-18T15:40:14;27.40;;;4.30;;
72464;SDS011;60471;52.150;4.508;2023-02-18T15:42:44;29.50;;;9.23;;
72464;SDS011;60471;52.150;4.508;2023-02-18T15:45:20;18.45;;;3.47;;
72464;SDS011;60471;52.150;4.508;2023-02-18T15:47:55;22.67;;;4.38;;
72464;SDS011;60471;52.150;4.508;2023-02-18T15:53:14;24.75;;;4.07;;
72464;SDS011;60471;52.150;4.508;2023-02-18T15:55:45;27.45;;;6.90;;
72464;SDS011;60471;52.150;4.508;2023-02-18T15:58:16;43.45;;;18.45;;
72464;SDS011;60471;52.150;4.508;2023-02-18T16:00:53;26.77;;;3.75;;
72464;SDS011;60471;52.150;4.508;2023-02-18T16:03:23;31.40;;;9.85;;
72464;SDS011;60471;52.150;4.508;2023-02-18T16:11:48;19.45;;;3.35;;
72464;SDS011;60471;52.150;4.508;2023-02-18T16:14:26;26.05;;;3.85;;
72464;SDS011;60471;52.150;4.508;2023-02-18T16:19:46;26.60;;;4.85;;
72464;SDS011;60471;52.150;4.508;2023-02-18T16:23:09;28.40;;;4.93;;
72464;SDS011;60471;52.150;4.508;2023-02-18T16:25:17;30.48;;;5.50;;
72464;SDS011;60471;52.150;4.508;2023-02-18T16:27:51;29.45;;;4.32;;
72464;SDS011;60471;52.150;4.508;2023-02-18T16:32:48;22.88;;;4.07;;
72464;SDS011;60471;52.150;4.508;2023-02-18T16:35:16;23.25;;;4.75;;
72464;SDS011;60471;52.150;4.508;2023-02-18T16:37:44;32.03;;;4.55;;
72464;SDS011;60471;52.150;4.508;2023-02-18T16:42:48;29.77;;;5.40;;
72464;SDS011;60471;52.150;4.508;2023-02-18T16:45:15;26.92;;;4.68;;
72464;SDS011;60471;52.150;4.508;2023-02-18T16:47:43;33.28;;;7.88;;
72464;SDS011;60471;52.150;4.508;2023-02-18T16:50:15;32.53;;;5.18;;
72464;SDS011;60471;52.150;4.508;2023-02-18T16:52:46;22.52;;;4.30;;
72464;SDS011;60471;52.150;4.508;2023-02-18T16:55:17;32.90;;;5.18;;
72464;SDS011;60471;52.150;4.508;2023-02-18T16:57:47;30.25;;;5.88;;
72464;SDS011;60471;52.150;4.508;2023-02-18T17:00:14;30.95;;;5.18;;
72464;SDS011;60471;52.150;4.508;2023-02-18T17:02:43;23.35;;;3.67;;
72464;SDS011;60471;52.150;4.508;2023-02-18T17:05:18;31.27;;;4.95;;
72464;SDS011;60471;52.150;4.508;2023-02-18T17:07:48;30.00;;;5.35;;
72464;SDS011;60471;52.150;4.508;2023-02-18T17:10:14;36.22;;;5.20;;
72464;SDS011;60471;52.150;4.508;2023-02-18T17:12:42;28.45;;;4.93;;
72464;SDS011;60471;52.150;4.508;2023-02-18T17:15:20;35.95;;;4.85;;
72464;SDS011;60471;52.150;4.508;2023-02-18T17:17:54;28.90;;;5.28;;
72464;SDS011;60471;52.150;4.508;2023-02-18T17:20:27;31.73;;;6.05;;
72464;SDS011;60471;52.150;4.508;2023-02-18T17:22:57;48.03;;;5.90;;
72464;SDS011;60471;52.150;4.508;2023-02-18T17:25:27;28.55;;;5.95;;
72464;SDS011;60471;52.150;4.508;2023-02-18T17:27:59;32.33;;;5.50;;
72464;SDS011;60471;52.150;4.508;2023-02-18T17:30:26;30.13;;;5.65;;
72464;SDS011;60471;52.150;4.508;2023-02-18T17:32:55;37.22;;;6.43;;
72464;SDS011;60471;52.150;4.508;2023-02-18T17:35:24;29.10;;;5.57;;
72464;SDS011;60471;52.150;4.508;2023-02-18T17:37:51;42.00;;;13.55;;
72464;SDS011;60471;52.150;4.508;2023-02-18T17:40:22;32.22;;;5.50;;